메인 페이지
METAR-TAF:

METAR-TAF

공항 :

Naval Air Station JRB Fort Worth (Carswell Field)

포트워스, 텍사스, 미국

위도: 32-45-57N, 경도: 097-26-00W, 고도: 198m

현재 날씨관측

예보는 58분 전, 03:52시(UTC)에 발표되었습니다.
무풍
온도 13°C
습도 62%
기압 1024 hPa
시정: 16.1km
맑음

METAR: KNFW 220352Z AUTO 00000KT 10SM CLR 13/06 A3023 RMK AO2 SLP218 T01330061 TSNO $

시각: 23:50 (04:50 UTC)

예보

예보 대상 시간: 21일 23시부터 22일 23시까지 (UTC)
동북동8kt
시정 10km 이상
고도 25000ft 상공 구름 보통
전환 중
22일 05시부터 22일 07시까지 (UTC)
동남동8kt
시정 10km 이상
고도 25000ft 상공 구름 조금
전환 중
22일 21시부터 22일 23시까지 (UTC)
여러 방향의 바람 6kt
시정: 2211m
고도 25000ft 상공 구름 조금

TAF: KNFW 2123/2223 07008KT 9999 SCT250 QNH3025INS BECMG 2205/2207 12008KT 9999 FEW250 QNH3032INS BECMG 2221/2223 VRB06KT 9999 FEW250 QNH3019INS AUTOMATED SENSOR METWATCH 2123 TIL 2211 T10/2212Z T/2221Z FN00170

4,000개 이상의 공항 관측 자료 및 예보 (METAR 및 TAF 보고).

지도상에서 검색 가능한 기상관측소가 노란 점과 빨간 점으로 표시되어 있습니다.

기상관측소 명을 보려면 표시 위로 마우스를 이동하세요.

날씨 관측과 예보를 보려면 클릭하세요.

지도 변경 : 확대하려면 엑스 표시가 있는 녹색 버튼, 축소하려면 빼기 표시가 있는 녹색 버튼, 다음 페이지의 지도를 보려면 녹색 화살표를 클릭하세요.


METAR-TAF: